createdAt,value
2022-12-08T00:01:33.659Z,23.45
2022-12-08T00:04:03.396Z,22.15
2022-12-08T00:06:53.871Z,22.33
2022-12-08T00:09:32.087Z,20.83
2022-12-08T00:12:11.674Z,20.63
2022-12-08T00:14:43.195Z,24.17
2022-12-08T00:17:13.571Z,24.90
2022-12-08T00:19:42.921Z,21.60
2022-12-08T00:22:12.463Z,22.08
2022-12-08T00:24:44.157Z,23.13
2022-12-08T00:27:14.180Z,23.08
2022-12-08T00:29:44.810Z,24.15
2022-12-08T00:32:12.665Z,23.15
2022-12-08T00:34:40.323Z,20.90
2022-12-08T00:37:07.660Z,21.48
2022-12-08T00:39:35.359Z,21.80
2022-12-08T00:42:14.427Z,20.75
2022-12-08T00:44:45.050Z,19.27
2022-12-08T00:47:14.361Z,20.77
2022-12-08T00:49:42.633Z,20.70
2022-12-08T00:52:09.910Z,20.98
2022-12-08T00:54:37.643Z,21.33
2022-12-08T00:57:05.038Z,18.98
2022-12-08T00:59:32.673Z,18.65
2022-12-08T01:02:00.237Z,20.77
2022-12-08T01:04:27.850Z,17.60
2022-12-08T01:06:55.374Z,21.00
2022-12-08T01:09:22.918Z,19.50
2022-12-08T01:11:50.503Z,21.13
2022-12-08T01:14:18.138Z,19.77
2022-12-08T01:16:45.786Z,16.58
2022-12-08T01:19:16.206Z,17.00
2022-12-08T01:21:44.918Z,17.17
2022-12-08T01:24:19.199Z,17.58
2022-12-08T01:26:48.191Z,20.58
2022-12-08T01:29:16.210Z,18.38
2022-12-08T01:31:43.881Z,18.27
2022-12-08T01:34:12.814Z,16.35
2022-12-08T01:36:40.572Z,19.52
2022-12-08T01:39:16.116Z,19.20
2022-12-08T01:41:45.402Z,17.83
2022-12-08T01:44:12.862Z,17.38
2022-12-08T01:46:43.735Z,16.05
2022-12-08T01:49:20.093Z,21.48
2022-12-08T01:52:09.697Z,16.45
2022-12-08T01:55:02.428Z,17.60
2022-12-08T01:57:58.832Z,18.80
2022-12-08T02:00:26.695Z,18.83
2022-12-08T02:03:09.212Z,17.92
2022-12-08T02:05:39.975Z,17.23
2022-12-08T02:08:11.404Z,18.60
2022-12-08T02:10:42.204Z,18.33
2022-12-08T02:13:15.655Z,18.27
2022-12-08T02:16:11.464Z,19.35
2022-12-08T02:19:30.185Z,19.35
2022-12-08T02:22:03.710Z,19.85
2022-12-08T02:24:48.387Z,19.92
2022-12-08T02:27:50.242Z,20.15
2022-12-08T02:30:22.939Z,16.70
2022-12-08T02:33:25.693Z,16.85
2022-12-08T02:36:21.457Z,18.60
2022-12-08T02:39:10.192Z,16.73
2022-12-08T02:41:56.563Z,16.20
2022-12-08T02:44:43.938Z,17.27
2022-12-08T02:47:18.334Z,19.77
2022-12-08T02:49:46.198Z,19.70
2022-12-08T02:52:13.383Z,17.90
2022-12-08T02:54:50.200Z,17.73
2022-12-08T02:57:40.409Z,19.35
2022-12-08T03:00:17.178Z,17.77
2022-12-08T03:03:14.347Z,18.00
2022-12-08T03:06:15.265Z,18.10
2022-12-08T03:08:57.350Z,17.73
2022-12-08T03:12:06.162Z,18.05
2022-12-08T03:14:36.795Z,19.90
2022-12-08T03:17:05.745Z,22.70
2022-12-08T03:19:42.017Z,20.75
2022-12-08T03:22:12.175Z,22.33
2022-12-08T03:24:44.786Z,22.15
2022-12-08T03:27:21.059Z,23.35
2022-12-08T03:29:52.208Z,21.23
2022-12-08T03:32:50.431Z,21.30
2022-12-08T03:35:24.671Z,21.88
2022-12-08T03:37:52.275Z,24.92
2022-12-08T03:40:20.872Z,21.48
2022-12-08T03:42:48.429Z,22.75
2022-12-08T03:45:15.728Z,21.30
2022-12-08T03:47:43.750Z,21.25
2022-12-08T03:50:11.791Z,21.42
2022-12-08T03:52:39.328Z,23.17
2022-12-08T03:55:07.498Z,22.63
2022-12-08T03:57:35.192Z,21.50
2022-12-08T04:00:05.400Z,23.60
2022-12-08T04:02:33.077Z,23.02
2022-12-08T04:05:00.402Z,26.77
2022-12-08T04:07:27.852Z,22.80
2022-12-08T04:09:55.075Z,23.58
2022-12-08T04:12:22.576Z,23.67
2022-12-08T04:14:49.808Z,28.33
2022-12-08T04:17:17.277Z,21.35
2022-12-08T04:19:44.626Z,23.67
2022-12-08T04:22:12.100Z,22.02
2022-12-08T04:24:39.309Z,22.13
2022-12-08T04:27:06.850Z,23.60
2022-12-08T04:29:34.063Z,26.38
2022-12-08T04:32:01.620Z,24.83
2022-12-08T04:34:28.809Z,22.33
2022-12-08T04:36:56.312Z,25.98
2022-12-08T04:39:23.610Z,22.50
2022-12-08T04:41:51.171Z,23.60
2022-12-08T04:44:18.515Z,24.52
2022-12-08T04:46:46.057Z,24.45
2022-12-08T04:49:13.425Z,25.55
2022-12-08T04:51:40.926Z,29.10
2022-12-08T04:54:08.114Z,26.05
2022-12-08T04:56:35.658Z,26.33
2022-12-08T04:59:03.568Z,24.65
2022-12-08T05:01:31.138Z,25.00
2022-12-08T05:03:58.421Z,25.75
2022-12-08T05:06:26.040Z,26.20
2022-12-08T05:08:53.289Z,29.02
2022-12-08T05:11:20.901Z,28.25
2022-12-08T05:13:48.280Z,29.63
2022-12-08T05:16:16.891Z,28.95
2022-12-08T05:18:44.369Z,27.15
2022-12-08T05:21:12.459Z,27.35
2022-12-08T05:23:39.708Z,26.42
2022-12-08T05:26:07.493Z,26.95
2022-12-08T05:28:43.384Z,27.50
2022-12-08T05:31:14.743Z,27.05
2022-12-08T05:33:43.144Z,24.73
2022-12-08T05:36:14.646Z,24.17
2022-12-08T05:38:42.764Z,26.85
2022-12-08T05:41:20.123Z,25.42
2022-12-08T05:43:48.283Z,24.73
2022-12-08T05:46:17.388Z,25.25
2022-12-08T05:48:44.829Z,25.90
2022-12-08T05:51:20.611Z,23.63
2022-12-08T05:53:50.260Z,24.80
2022-12-08T05:56:18.645Z,25.10
2022-12-08T05:58:46.316Z,24.83
2022-12-08T06:01:31.782Z,24.08
2022-12-08T06:04:03.311Z,25.50
2022-12-08T06:06:36.324Z,24.77
2022-12-08T06:09:05.853Z,23.00
2022-12-08T06:11:33.932Z,25.90
2022-12-08T06:14:03.291Z,23.92
2022-12-08T06:16:31.408Z,26.88
2022-12-08T06:18:58.877Z,27.25
2022-12-08T06:21:26.489Z,25.85
2022-12-08T06:23:55.203Z,28.60
2022-12-08T06:26:23.174Z,23.33
2022-12-08T06:28:51.264Z,25.50
2022-12-08T06:31:25.907Z,28.70
2022-12-08T06:33:55.238Z,27.45
2022-12-08T06:36:27.907Z,28.10
2022-12-08T06:38:56.197Z,30.63
2022-12-08T06:41:23.927Z,27.23
2022-12-08T06:43:51.445Z,24.88
2022-12-08T06:46:20.877Z,28.65
2022-12-08T06:48:50.661Z,25.50
2022-12-08T06:51:23.497Z,24.23
2022-12-08T06:53:50.971Z,25.80
2022-12-08T06:56:20.207Z,22.07
2022-12-08T06:58:52.343Z,24.92
2022-12-08T07:01:20.844Z,22.85
2022-12-08T07:03:48.483Z,25.63
2022-12-08T07:06:21.648Z,23.38
2022-12-08T07:08:48.935Z,23.08
2022-12-08T07:11:21.554Z,22.75
2022-12-08T07:13:50.633Z,24.25
2022-12-08T07:16:18.654Z,23.08
2022-12-08T07:18:46.059Z,23.80
2022-12-08T07:21:15.138Z,23.23
2022-12-08T07:23:45.831Z,23.45
2022-12-08T07:26:13.711Z,23.02
2022-12-08T07:28:42.781Z,26.13
2022-12-08T07:31:22.812Z,27.90
2022-12-08T07:33:51.629Z,25.83
2022-12-08T07:36:19.708Z,31.88
2022-12-08T07:38:47.962Z,30.73
2022-12-08T07:41:23.658Z,27.65
2022-12-08T07:43:53.596Z,25.33
2022-12-08T07:46:25.041Z,23.23
2022-12-08T07:48:57.117Z,23.40
2022-12-08T07:51:25.397Z,24.13
2022-12-08T07:53:54.893Z,25.05
2022-12-08T07:56:23.790Z,25.48
2022-12-08T07:58:51.274Z,20.42
2022-12-08T08:01:31.309Z,23.08
2022-12-08T08:04:02.134Z,20.60
2022-12-08T08:06:30.664Z,22.83
2022-12-08T08:08:57.971Z,22.67
2022-12-08T08:11:25.732Z,20.80
2022-12-08T08:13:53.440Z,22.33
2022-12-08T08:16:21.528Z,22.92
2022-12-08T08:18:51.016Z,24.83
2022-12-08T08:24:08.506Z,28.83
2022-12-08T08:26:37.680Z,27.85
2022-12-08T08:29:05.013Z,28.13
2022-12-08T08:31:32.675Z,24.83
2022-12-08T08:34:05.089Z,22.65
2022-12-08T08:36:33.175Z,22.17
2022-12-08T08:39:00.459Z,22.20
2022-12-08T08:41:27.968Z,21.50
2022-12-08T08:43:55.872Z,19.45
2022-12-08T08:46:23.507Z,22.65
2022-12-08T08:48:50.787Z,21.23
2022-12-08T08:51:18.286Z,21.67
2022-12-08T08:53:45.814Z,19.98
2022-12-08T08:56:16.813Z,19.77
2022-12-08T08:58:44.062Z,17.40
2022-12-08T09:01:21.614Z,18.73
2022-12-08T09:03:49.544Z,17.60
2022-12-08T09:06:17.629Z,17.35
2022-12-08T09:08:46.594Z,19.85
2022-12-08T09:11:14.384Z,17.60
2022-12-08T09:13:42.252Z,21.55
2022-12-08T09:16:12.248Z,20.50
2022-12-08T09:18:39.644Z,21.25
2022-12-08T09:21:13.203Z,17.65
2022-12-08T09:23:40.687Z,18.95
2022-12-08T09:26:08.719Z,17.85
2022-12-08T09:28:36.225Z,20.17
2022-12-08T09:31:04.265Z,18.77
2022-12-08T09:33:31.689Z,17.23
2022-12-08T09:36:04.164Z,18.52
2022-12-08T09:38:31.753Z,15.27
2022-12-08T09:41:02.523Z,18.02
2022-12-08T09:44:02.778Z,17.73
2022-12-08T09:46:34.657Z,21.15
2022-12-08T09:49:04.827Z,15.77
2022-12-08T09:51:41.766Z,17.20
2022-12-08T09:54:35.675Z,16.13
2022-12-08T09:57:13.875Z,15.45
2022-12-08T09:59:47.851Z,16.55
2022-12-08T10:02:26.003Z,16.95
2022-12-08T10:04:57.672Z,14.57
2022-12-08T10:07:49.453Z,13.75
2022-12-08T10:10:46.871Z,16.20
2022-12-08T10:13:53.328Z,15.07
2022-12-08T10:16:33.068Z,15.20
2022-12-08T10:19:25.406Z,13.75
2022-12-08T10:21:54.336Z,14.80
2022-12-08T10:24:54.576Z,15.32
2022-12-08T10:27:22.704Z,13.88
2022-12-08T10:29:50.269Z,16.20
2022-12-08T10:32:22.285Z,18.50
2022-12-08T10:35:12.895Z,19.77
2022-12-08T10:37:40.399Z,20.13
2022-12-08T10:40:17.962Z,23.42
2022-12-08T10:42:53.556Z,14.73
2022-12-08T10:45:44.228Z,20.65
2022-12-08T10:48:30.760Z,20.23
2022-12-08T10:51:00.690Z,20.00
2022-12-08T10:53:34.043Z,17.63
2022-12-08T10:56:04.572Z,18.20
2022-12-08T10:58:42.618Z,17.40
2022-12-08T11:01:28.205Z,16.83
2022-12-08T11:03:58.857Z,17.63
2022-12-08T11:06:39.352Z,17.27
2022-12-08T11:09:18.656Z,17.48
2022-12-08T11:11:51.826Z,17.85
2022-12-08T11:14:31.966Z,20.30
2022-12-08T11:17:18.082Z,17.83
2022-12-08T11:19:57.072Z,14.63
2022-12-08T11:22:44.869Z,13.95
2022-12-08T11:25:27.344Z,18.52
2022-12-08T11:28:01.430Z,14.70
2022-12-08T11:30:38.315Z,13.13
2022-12-08T11:33:27.847Z,16.92
2022-12-08T11:36:11.540Z,15.65
2022-12-08T11:38:47.721Z,16.25
2022-12-08T11:41:22.908Z,14.90
2022-12-08T11:44:11.463Z,15.98
2022-12-08T11:46:53.088Z,17.20
2022-12-08T11:49:20.829Z,15.38
2022-12-08T11:51:57.692Z,15.70
2022-12-08T11:54:32.858Z,19.10
2022-12-08T11:57:04.077Z,21.25
2022-12-08T11:59:46.333Z,17.60
2022-12-08T12:02:26.510Z,16.60
2022-12-08T12:06:03.358Z,22.90
2022-12-08T12:09:08.019Z,17.65
2022-12-08T12:12:19.379Z,17.92
2022-12-08T12:15:34.554Z,19.73
2022-12-08T12:18:40.344Z,18.92
2022-12-08T12:21:31.989Z,18.20
2022-12-08T12:24:10.951Z,18.95
2022-12-08T12:26:55.449Z,19.88
2022-12-08T12:29:28.650Z,18.63
2022-12-08T12:32:07.329Z,22.23
2022-12-08T12:34:43.690Z,20.15
2022-12-08T12:37:18.978Z,18.75
2022-12-08T12:40:02.270Z,21.33
2022-12-08T12:42:39.884Z,21.85
2022-12-08T12:45:21.959Z,22.52
2022-12-08T12:47:57.314Z,20.27
2022-12-08T12:50:34.023Z,19.65
2022-12-08T12:53:15.707Z,22.70
2022-12-08T12:55:46.521Z,23.42
2022-12-08T12:58:42.632Z,20.73
2022-12-08T13:01:13.031Z,20.83
2022-12-08T13:04:11.061Z,20.00
2022-12-08T13:06:50.596Z,19.85
2022-12-08T13:09:33.575Z,21.95
2022-12-08T13:12:12.671Z,22.83
2022-12-08T13:14:50.612Z,23.73
2022-12-08T13:17:28.813Z,24.63
2022-12-08T13:20:01.536Z,21.58
2022-12-08T13:22:47.058Z,22.85
2022-12-08T13:25:47.267Z,24.70
2022-12-08T13:28:27.591Z,22.35
2022-12-08T13:31:01.084Z,20.10
2022-12-08T13:33:33.462Z,21.60
2022-12-08T13:36:33.158Z,25.48
2022-12-08T13:39:04.835Z,21.52
2022-12-08T13:41:49.438Z,19.38
2022-12-08T13:47:34.467Z,21.20
2022-12-08T13:58:49.697Z,26.50
2022-12-08T14:01:22.536Z,25.10
2022-12-08T14:06:56.908Z,23.08
2022-12-08T14:09:29.184Z,24.92
2022-12-08T14:12:08.299Z,26.55
2022-12-08T14:15:02.410Z,23.67
2022-12-08T14:17:30.604Z,26.50
2022-12-08T14:20:12.579Z,27.13
2022-12-08T14:22:41.493Z,27.90
2022-12-08T14:25:15.861Z,39.30
2022-12-08T14:27:44.192Z,35.00
2022-12-08T14:30:14.739Z,30.85
2022-12-08T14:32:49.012Z,30.05
2022-12-08T14:35:32.315Z,33.30
2022-12-08T14:38:14.243Z,31.73
2022-12-08T14:40:48.088Z,34.00
2022-12-08T14:43:26.009Z,37.00
2022-12-08T14:46:01.590Z,32.10
2022-12-08T14:48:33.615Z,34.33
2022-12-08T14:51:03.888Z,34.85
2022-12-08T14:53:52.496Z,28.52
2022-12-08T14:56:51.922Z,33.67
2022-12-08T14:59:36.871Z,31.25
2022-12-08T15:02:16.081Z,35.53
2022-12-08T15:05:19.206Z,39.88
2022-12-08T15:08:02.613Z,34.58
2022-12-08T15:10:37.822Z,30.75
2022-12-08T15:13:09.852Z,34.85
2022-12-08T15:15:56.313Z,32.25
2022-12-08T15:18:40.833Z,31.70
2022-12-08T15:21:13.048Z,31.13
2022-12-08T15:23:45.635Z,38.60
2022-12-08T15:26:28.153Z,38.47
2022-12-08T15:28:55.853Z,35.70
2022-12-08T15:31:23.593Z,36.20
2022-12-08T15:33:52.110Z,38.15
2022-12-08T15:36:19.585Z,37.50
2022-12-08T15:38:46.773Z,31.20
2022-12-08T15:41:15.318Z,30.42
2022-12-08T15:43:42.791Z,27.05
2022-12-08T15:46:11.088Z,34.63
2022-12-08T15:48:38.520Z,33.58
2022-12-08T15:51:05.996Z,39.92
2022-12-08T15:53:33.157Z,41.22
2022-12-08T15:58:56.515Z,45.13
2022-12-08T16:01:26.239Z,48.15
2022-12-08T16:09:43.451Z,53.58
2022-12-08T16:18:28.830Z,54.72
2022-12-08T16:23:45.637Z,50.08
2022-12-08T16:27:01.210Z,42.58
2022-12-08T16:29:09.031Z,40.70
2022-12-08T16:31:37.417Z,50.42
2022-12-08T16:34:05.000Z,50.15
2022-12-08T16:36:32.255Z,53.10
2022-12-08T16:38:59.936Z,46.00
2022-12-08T16:41:45.642Z,39.92
2022-12-08T16:44:13.146Z,37.17
2022-12-08T16:46:40.643Z,29.05
2022-12-08T16:49:09.663Z,28.60
2022-12-08T16:51:36.993Z,29.08
2022-12-08T16:54:04.780Z,26.63
2022-12-08T16:56:33.389Z,21.33
2022-12-08T16:59:02.626Z,28.90
2022-12-08T17:01:31.418Z,28.40
2022-12-08T17:04:31.052Z,32.22
2022-12-08T17:06:47.113Z,40.15
2022-12-08T17:09:14.735Z,57.90
2022-12-08T17:11:43.714Z,68.38
2022-12-08T17:14:13.219Z,50.25
2022-12-08T17:16:41.384Z,42.83
2022-12-08T17:19:09.312Z,44.92
2022-12-08T17:21:36.631Z,44.97
2022-12-08T17:24:05.044Z,50.78
2022-12-08T17:26:32.492Z,50.35
2022-12-08T17:29:03.817Z,55.35
2022-12-08T17:31:33.233Z,44.92
2022-12-08T17:34:03.287Z,44.33
2022-12-08T17:36:31.104Z,42.75
2022-12-08T17:39:00.981Z,45.97
2022-12-08T17:41:29.740Z,40.42
2022-12-08T17:43:58.084Z,40.55
2022-12-08T17:46:25.467Z,41.78
2022-12-08T17:48:53.663Z,38.03
2022-12-08T17:51:21.277Z,40.75
2022-12-08T17:53:48.757Z,42.42
2022-12-08T17:56:21.701Z,35.40
2022-12-08T17:58:54.203Z,38.38
2022-12-08T18:01:23.985Z,40.90
2022-12-08T18:03:51.928Z,42.38
2022-12-08T18:06:19.433Z,39.53
2022-12-08T18:08:47.878Z,35.33
2022-12-08T18:11:19.209Z,43.00
2022-12-08T18:13:49.342Z,41.72
2022-12-08T18:16:20.153Z,35.78
2022-12-08T18:18:48.535Z,44.63
2022-12-08T18:21:23.030Z,40.75
2022-12-08T18:23:52.027Z,36.30
2022-12-08T18:26:20.639Z,37.15
2022-12-08T18:28:49.146Z,40.38
2022-12-08T18:31:20.844Z,35.13
2022-12-08T18:33:49.920Z,34.20
2022-12-08T18:36:22.681Z,38.42
2022-12-08T18:38:52.664Z,38.67
2022-12-08T18:41:26.083Z,39.40
2022-12-08T18:43:57.111Z,41.85
2022-12-08T18:46:25.795Z,38.13
2022-12-08T18:48:53.785Z,35.85
2022-12-08T18:51:24.240Z,42.08
2022-12-08T18:53:52.901Z,40.03
2022-12-08T18:56:30.103Z,52.90
2022-12-08T18:59:03.913Z,63.92
2022-12-08T19:01:37.522Z,49.03
2022-12-08T19:06:57.268Z,37.72
2022-12-08T19:09:27.016Z,35.75
2022-12-08T19:11:55.231Z,41.90
2022-12-08T19:14:27.908Z,46.28
2022-12-08T19:16:58.803Z,39.80
2022-12-08T19:19:29.367Z,51.35
2022-12-08T19:21:57.273Z,43.55
2022-12-08T19:24:25.888Z,41.15
2022-12-08T19:26:53.684Z,41.83
2022-12-08T19:29:21.256Z,47.40
2022-12-08T19:31:48.609Z,45.67
2022-12-08T19:34:16.288Z,52.13
2022-12-08T19:36:43.932Z,54.20
2022-12-08T19:39:37.141Z,54.97
2022-12-08T19:42:31.441Z,53.28
2022-12-08T19:45:04.758Z,54.10
2022-12-08T19:47:32.218Z,58.90
2022-12-08T19:50:20.084Z,58.40
2022-12-08T19:52:47.352Z,57.90
2022-12-08T19:55:14.894Z,55.72
2022-12-08T19:57:42.252Z,53.35
2022-12-08T20:00:13.080Z,54.70
2022-12-08T20:02:40.547Z,42.75
2022-12-08T20:05:09.799Z,52.08
2022-12-08T20:07:37.063Z,49.28
2022-12-08T20:10:09.847Z,48.13
2022-12-08T20:12:37.119Z,46.63
2022-12-08T20:15:05.230Z,50.83
2022-12-08T20:17:32.529Z,70.43
2022-12-08T20:20:05.323Z,78.95
2022-12-08T20:22:34.554Z,77.05
2022-12-08T20:25:03.121Z,108.25
2022-12-08T20:27:30.520Z,126.03
2022-12-08T20:29:58.005Z,126.43
2022-12-08T20:32:25.290Z,126.25
2022-12-08T20:34:52.846Z,117.57
2022-12-08T20:37:20.264Z,127.85
2022-12-08T20:39:47.766Z,108.78
2022-12-08T20:42:15.177Z,129.93
2022-12-08T20:44:44.504Z,143.10
2022-12-08T20:47:13.708Z,129.70
2022-12-08T20:49:41.489Z,149.77
2022-12-08T20:52:09.195Z,153.98
2022-12-08T20:54:38.132Z,154.90
2022-12-08T20:57:05.762Z,138.00
2022-12-08T20:59:33.694Z,136.13
2022-12-08T21:02:01.297Z,116.88
2022-12-08T21:04:29.391Z,116.65
2022-12-08T21:06:56.952Z,104.38
2022-12-08T21:09:24.789Z,100.28
2022-12-08T21:11:52.114Z,109.20
2022-12-08T21:14:19.703Z,93.68
2022-12-08T21:16:47.360Z,98.50
2022-12-08T21:19:15.463Z,111.20
2022-12-08T21:21:42.825Z,107.00
2022-12-08T21:24:10.966Z,108.60
2022-12-08T21:26:38.595Z,129.23
2022-12-08T21:29:06.359Z,110.47
2022-12-08T21:31:33.880Z,117.85
2022-12-08T21:34:02.840Z,133.18
2022-12-08T21:36:30.848Z,129.75
2022-12-08T21:39:01.075Z,176.82
2022-12-08T21:41:48.329Z,130.25
2022-12-08T21:44:20.520Z,153.73
2022-12-08T21:46:48.003Z,162.20
2022-12-08T21:49:17.007Z,159.50
2022-12-08T21:51:44.437Z,141.40
2022-12-08T21:54:18.206Z,140.88
2022-12-08T21:56:48.833Z,132.23
2022-12-08T21:59:18.168Z,123.20
2022-12-08T22:01:45.925Z,109.57
2022-12-08T22:04:18.814Z,111.95
2022-12-08T22:06:46.348Z,83.60
2022-12-08T22:09:15.576Z,86.63
2022-12-08T22:11:44.486Z,82.43
2022-12-08T22:14:15.095Z,75.95
2022-12-08T22:16:43.840Z,75.10
2022-12-08T22:19:12.706Z,79.68
2022-12-08T22:21:40.413Z,79.57
2022-12-08T22:24:08.661Z,70.57
2022-12-08T22:26:36.394Z,77.22
2022-12-08T22:29:04.213Z,75.90
2022-12-08T22:31:31.639Z,78.20
2022-12-08T22:34:00.166Z,73.93
2022-12-08T22:36:28.759Z,82.93
2022-12-08T22:38:57.093Z,77.15
2022-12-08T22:41:24.526Z,75.93
2022-12-08T22:43:52.320Z,81.70
2022-12-08T22:46:26.693Z,77.13
2022-12-08T22:48:59.335Z,73.82
2022-12-08T22:51:26.878Z,76.13
2022-12-08T22:53:54.452Z,77.35
2022-12-08T22:56:21.900Z,74.75
2022-12-08T22:58:49.901Z,75.78
2022-12-08T23:01:37.435Z,72.07
2022-12-08T23:04:05.287Z,82.30
2022-12-08T23:06:33.067Z,74.88
2022-12-08T23:09:00.826Z,78.22
2022-12-08T23:11:31.475Z,75.07
2022-12-08T23:14:03.044Z,69.75
2022-12-08T23:16:30.634Z,69.05
2022-12-08T23:18:59.671Z,63.88
2022-12-08T23:21:27.204Z,68.10
2022-12-08T23:23:54.837Z,73.50
2022-12-08T23:26:26.957Z,66.15
2022-12-08T23:28:57.317Z,70.70
2022-12-08T23:31:25.629Z,73.80
2022-12-08T23:33:55.074Z,72.75
2022-12-08T23:36:26.305Z,77.10
2022-12-08T23:38:55.006Z,61.50
2022-12-08T23:41:22.546Z,69.43
2022-12-08T23:43:52.433Z,60.95
2022-12-08T23:46:22.593Z,57.95
2022-12-08T23:48:51.507Z,57.50
2022-12-08T23:51:19.593Z,55.75
2022-12-08T23:53:47.891Z,61.22
2022-12-08T23:56:18.082Z,53.55
2022-12-08T23:58:46.492Z,58.85
